Hanover, PA (17331)

8:25 AM EDT on October 21, 2014 (GMT -0400)
Hanover, PA | Change Station
CLOSE
Current Station
Personal Weather Station
Location: Hanover, PA
Elevation: 614 ft
Nearby Weather Stations

Elev 614 ft 39.79 °N, 76.98 °W | Updated 53 seconds ago

Mostly Cloudy
Mostly Cloudy
47.1 °F
Feels Like 47 °F
N
0.0
Wind Variable Wind from NW
Gusts 0.0 mph

Today
High -- | Low -- °F
--% Chance of Precip.
Yesterday
High -- | Low -- °F
Precip. -- in
7:24 AM 6:20 PM
Waning Crescent, 6% visible
Pressure 29.88 in
Visibility 0.2 miles
Clouds
Windchill 47 °F
Dew Point 47 °F
Humidity 99%
Rainfall 0.04 in
Snow Depth Not available.
UV Not available.
Pollen .30 out of 12
Ozone Good
PM2.5 Moderate
Flu Activity Sporadic
METAR KTHV 211153Z AUTO 00000KT M1/4SM FG VV002 07/07 A2986 RMK AO2 SLP116 60001 70005 T00670067 10117 20061 53004

More Conditions Fewer Conditions

Pressure 29.88 in
Visibility 0.2 miles
Clouds
Windchill 47 °F
Dew Point 47 °F
Humidity 99%
Rainfall 0.04 in
Snow Depth Not available.
UV Not available.
Pollen .30 out of 12
Ozone Good
PM2.5 Moderate
Flu Activity Sporadic
METAR KTHV 211153Z AUTO 00000KT M1/4SM FG VV002 07/07 A2986 RMK AO2 SLP116 60001 70005 T00670067 10117 20061 53004

More Conditions Fewer Conditions

Nowcast | as of 4:32 am EDT on October 21, 2014

A few showers will be across south central Pennsylvania through 10 am. Most of the showers will be on the light side. The showers are moving east at 25 mph.

×

10-Day Weather Forecast

Almanac

Astronomy

Oct. 21, 2014 Rise Set
Actual Time 7:24 AM EDT 6:20 PM EDT
Civil Twilight 6:57 AM EDT 6:47 PM EDT
Nautical Twilight 6:25 AM EDT 7:18 PM EDT
Astronomical Twilight 5:54 AM EDT 7:50 PM EDT
Moon 5:07 AM EDT 5:12 PM EDT
Length of Visible Light 11h 50m
Length of Day
10h 55m
Tomorrow will be 2m 28s shorter.
Waning Crescent, 6% of the Moon is Illuminated
Today
Waning Crescent
Oct 23
New
Oct 30
First Quarter
Nov 6
Full
Nov 14
Last Quarter

Today's Extremes

State Highs State Lows

Community

WunderPhotos

Upload Photos

1,763,647 photos uploaded!

Nearby

Air Quality

  Air Quality AQ Index Pollutant
Yesterday Moderate
PM2.5
Yesterday Good
OZONE
Current Moderate
PM2.5
Current Good
OZONE
Tuesday Moderate
PM2.5
Wednesday Good
PM2.5

Snow Depth

Station Depth Elevation
No new snow has been reported.

Earthquake Activity

City Distance Mag. Time & Date
No recent earthquake activity has been reported nearby.
Minimum magnitude displayed is 2.5.

Coastal Water Temperatures

Place Temperature
No Stations Reporting

Nearby Weather Stations